createdAt,value
2023-04-30T00:01:56.673Z,9.00
2023-04-30T00:06:58.298Z,8.60
2023-04-30T00:11:59.925Z,8.20
2023-04-30T00:17:01.910Z,9.00
2023-04-30T00:22:03.994Z,8.37
2023-04-30T00:27:05.840Z,8.07
2023-04-30T00:32:07.513Z,8.63
2023-04-30T00:37:09.932Z,8.90
2023-04-30T00:42:11.614Z,8.70
2023-04-30T00:47:13.219Z,9.43
2023-04-30T00:52:14.899Z,9.00
2023-04-30T00:57:16.579Z,8.53
2023-04-30T01:02:18.765Z,9.17
2023-04-30T01:07:20.818Z,8.70
2023-04-30T01:12:47.605Z,8.63
2023-04-30T01:18:09.276Z,8.67
2023-04-30T01:23:19.159Z,10.30
2023-04-30T01:28:21.187Z,8.67
2023-04-30T01:33:23.374Z,9.37
2023-04-30T01:38:56.275Z,9.60
2023-04-30T01:44:25.684Z,10.57
2023-04-30T01:49:37.141Z,10.43
2023-04-30T01:54:59.532Z,10.13
2023-04-30T02:00:01.179Z,10.13
2023-04-30T02:05:02.979Z,8.83
2023-04-30T02:10:05.984Z,9.83
2023-04-30T02:15:08.444Z,10.93
2023-04-30T02:20:10.560Z,10.67
2023-04-30T02:25:12.808Z,9.60
2023-04-30T02:30:14.984Z,10.00
2023-04-30T02:35:41.860Z,8.53
2023-04-30T02:40:49.000Z,9.23
2023-04-30T02:45:52.289Z,9.37
2023-04-30T02:50:54.006Z,8.83
2023-04-30T02:55:56.285Z,8.83
2023-04-30T03:00:58.046Z,9.13
2023-04-30T03:05:59.858Z,8.37
2023-04-30T03:11:01.817Z,10.63
2023-04-30T03:16:04.760Z,9.27
2023-04-30T03:21:06.459Z,9.67
2023-04-30T03:26:08.520Z,8.17
2023-04-30T03:31:10.199Z,8.43
2023-04-30T03:36:12.795Z,9.33
2023-04-30T03:41:14.401Z,8.60
2023-04-30T03:46:16.169Z,8.17
2023-04-30T03:51:20.703Z,9.53
2023-04-30T03:56:22.602Z,10.43
2023-04-30T04:01:24.506Z,7.60
2023-04-30T04:06:26.966Z,7.67
2023-04-30T04:11:28.634Z,7.83
2023-04-30T04:16:31.606Z,6.70
2023-04-30T04:21:33.478Z,7.23
2023-04-30T04:26:38.386Z,8.17
2023-04-30T04:31:42.456Z,7.20
2023-04-30T04:36:45.985Z,7.87
2023-04-30T04:41:47.618Z,7.83
2023-04-30T04:46:49.992Z,8.13
2023-04-30T04:51:51.639Z,7.97
2023-04-30T04:56:53.363Z,7.10
2023-04-30T05:01:55.068Z,6.73
2023-04-30T05:06:56.877Z,7.13
2023-04-30T05:11:58.795Z,7.73
2023-04-30T05:17:00.398Z,6.70
2023-04-30T05:22:01.922Z,6.07
2023-04-30T05:27:05.620Z,6.90
2023-04-30T05:32:08.087Z,7.03
2023-04-30T05:37:09.762Z,6.43
2023-04-30T05:42:11.362Z,6.40
2023-04-30T05:47:12.970Z,6.57
2023-04-30T05:52:15.524Z,6.13
2023-04-30T05:57:17.492Z,6.40
2023-04-30T06:02:19.171Z,6.83
2023-04-30T06:07:20.812Z,5.63
2023-04-30T06:12:23.466Z,5.40
2023-04-30T06:17:25.151Z,5.73
2023-04-30T06:22:28.087Z,5.70
2023-04-30T06:27:29.621Z,5.17
2023-04-30T06:32:31.382Z,5.50
2023-04-30T06:37:38.380Z,5.57
2023-04-30T06:42:40.574Z,4.63
2023-04-30T06:47:42.962Z,5.23
2023-04-30T06:52:45.261Z,4.63
2023-04-30T06:57:47.111Z,4.30
2023-04-30T07:02:52.025Z,4.20
2023-04-30T07:07:53.814Z,3.90
2023-04-30T07:12:56.439Z,4.47
2023-04-30T07:17:58.099Z,4.75
2023-04-30T07:22:59.820Z,5.03
2023-04-30T07:28:01.501Z,4.80
2023-04-30T07:33:03.930Z,4.50
2023-04-30T07:38:06.688Z,4.45
2023-04-30T07:43:08.308Z,4.63
2023-04-30T07:48:10.038Z,3.72
2023-04-30T07:53:12.195Z,3.97
2023-04-30T07:59:09.405Z,3.13
2023-04-30T08:04:14.408Z,3.70
2023-04-30T08:09:16.318Z,3.58
2023-04-30T08:14:18.136Z,3.22
2023-04-30T08:19:19.819Z,3.67
2023-04-30T08:24:21.349Z,3.00
2023-04-30T08:29:22.873Z,3.08
2023-04-30T08:34:24.429Z,3.00
2023-04-30T08:39:26.177Z,2.67
2023-04-30T08:44:28.244Z,2.25
2023-04-30T08:49:33.277Z,2.30
2023-04-30T08:54:36.398Z,2.35
2023-04-30T08:59:38.132Z,2.17
2023-04-30T09:04:39.886Z,2.05
2023-04-30T09:09:41.720Z,1.73
2023-04-30T09:15:04.954Z,1.42
2023-04-30T09:20:11.264Z,1.45
2023-04-30T09:25:13.916Z,1.30
2023-04-30T09:30:31.636Z,1.60
2023-04-30T09:35:35.420Z,1.60
2023-04-30T09:40:41.362Z,1.90
2023-04-30T09:45:51.574Z,1.60
2023-04-30T09:50:53.237Z,1.45
2023-04-30T09:55:59.026Z,1.10
2023-04-30T10:01:02.185Z,0.73
2023-04-30T10:06:04.178Z,0.90
2023-04-30T10:11:08.292Z,0.93
2023-04-30T10:16:42.649Z,1.10
2023-04-30T10:21:46.311Z,0.70
2023-04-30T10:26:48.534Z,0.70
2023-04-30T10:31:52.730Z,0.50
2023-04-30T10:37:00.620Z,0.57
2023-04-30T10:42:06.574Z,0.50
2023-04-30T10:47:08.665Z,0.63
2023-04-30T10:52:11.501Z,0.40
2023-04-30T10:57:14.652Z,1.00
2023-04-30T11:02:17.686Z,0.57
2023-04-30T11:07:19.627Z,0.40
2023-04-30T11:12:28.571Z,0.50
2023-04-30T11:17:30.905Z,0.50
2023-04-30T11:22:38.577Z,0.40
2023-04-30T11:27:45.042Z,0.40
2023-04-30T11:32:48.996Z,0.40
2023-04-30T11:37:55.554Z,0.40
2023-04-30T11:42:57.367Z,0.40
2023-04-30T11:47:59.266Z,0.40
2023-04-30T11:53:05.364Z,0.57
2023-04-30T11:58:09.449Z,0.50
2023-04-30T12:03:14.902Z,0.30
2023-04-30T12:08:19.331Z,1.13
2023-04-30T12:13:20.863Z,0.40
2023-04-30T12:18:22.400Z,0.50
2023-04-30T12:23:24.048Z,0.30
2023-04-30T12:28:25.655Z,0.30
2023-04-30T12:33:31.025Z,0.40
2023-04-30T12:38:32.752Z,0.33
2023-04-30T12:43:34.436Z,0.60
2023-04-30T12:48:45.565Z,0.53
2023-04-30T12:53:47.308Z,0.47
2023-04-30T12:58:49.811Z,0.50
2023-04-30T13:03:53.064Z,0.50
2023-04-30T13:08:58.629Z,0.47
2023-04-30T13:14:00.703Z,0.40
2023-04-30T13:19:02.344Z,0.40
2023-04-30T13:24:04.222Z,0.50
2023-04-30T13:29:06.663Z,0.60
2023-04-30T13:34:09.626Z,0.50
2023-04-30T13:39:11.755Z,0.50
2023-04-30T13:44:13.368Z,0.40
2023-04-30T13:49:20.906Z,0.60
2023-04-30T13:54:22.632Z,0.43
2023-04-30T13:59:24.583Z,0.33
2023-04-30T14:04:27.578Z,0.23
2023-04-30T14:09:29.405Z,0.50
2023-04-30T14:14:31.055Z,0.40
2023-04-30T14:19:32.771Z,0.53
2023-04-30T14:24:35.368Z,0.50
2023-04-30T14:29:38.068Z,0.40
2023-04-30T14:34:39.687Z,0.20
2023-04-30T14:39:42.544Z,0.30
2023-04-30T14:44:44.253Z,0.40
2023-04-30T14:49:46.049Z,0.40
2023-04-30T14:54:47.694Z,0.40
2023-04-30T14:59:49.322Z,0.50
2023-04-30T15:04:51.038Z,0.30
2023-04-30T15:09:54.169Z,0.40
2023-04-30T15:14:57.475Z,0.50
2023-04-30T15:20:02.984Z,0.40
2023-04-30T15:25:05.362Z,0.40
2023-04-30T15:30:07.766Z,0.30
2023-04-30T15:35:16.272Z,0.43
2023-04-30T15:40:18.013Z,0.50
2023-04-30T15:45:20.846Z,0.60
2023-04-30T15:50:22.426Z,0.53
2023-04-30T15:55:26.218Z,0.43
2023-04-30T16:00:29.221Z,0.60
2023-04-30T16:05:31.612Z,0.40
2023-04-30T16:10:34.180Z,0.40
2023-04-30T16:15:37.901Z,0.70
2023-04-30T16:20:41.844Z,0.30
2023-04-30T16:25:43.467Z,0.40
2023-04-30T16:30:46.729Z,0.40
2023-04-30T16:35:48.586Z,0.40
2023-04-30T16:40:50.841Z,0.40
2023-04-30T16:45:52.863Z,0.50
2023-04-30T16:50:54.602Z,0.50
2023-04-30T16:55:56.251Z,0.60
2023-04-30T17:00:57.934Z,0.50
2023-04-30T17:05:59.551Z,0.57
2023-04-30T17:11:01.732Z,0.50
2023-04-30T17:16:03.613Z,0.53
2023-04-30T17:21:05.379Z,0.70
2023-04-30T17:26:07.001Z,0.40
2023-04-30T17:31:09.623Z,0.50
2023-04-30T17:36:12.334Z,0.53
2023-04-30T17:41:15.273Z,0.70
2023-04-30T17:46:17.027Z,0.60
2023-04-30T17:51:18.797Z,0.70
2023-04-30T17:56:20.397Z,1.00
2023-04-30T18:01:23.331Z,0.67
2023-04-30T18:06:28.096Z,0.80
2023-04-30T18:11:30.120Z,0.70
2023-04-30T18:16:33.124Z,0.57
2023-04-30T18:21:35.059Z,0.60
2023-04-30T18:26:37.565Z,0.50
2023-04-30T18:31:39.189Z,0.60
2023-04-30T18:36:43.858Z,0.50
2023-04-30T18:41:45.520Z,0.50
2023-04-30T18:46:47.176Z,0.60
2023-04-30T18:51:49.700Z,0.60
2023-04-30T18:56:51.463Z,0.73
2023-04-30T19:01:53.181Z,0.80
2023-04-30T19:06:56.030Z,0.90
2023-04-30T19:11:57.959Z,0.80
2023-04-30T19:17:00.523Z,0.57
2023-04-30T19:22:04.600Z,0.80
2023-04-30T19:27:06.437Z,1.20
2023-04-30T19:32:09.821Z,1.63
2023-04-30T19:37:11.604Z,1.90
2023-04-30T19:42:14.266Z,1.80
2023-04-30T19:47:15.953Z,1.50
2023-04-30T19:52:18.663Z,1.73
2023-04-30T19:57:20.297Z,1.70
2023-04-30T20:02:21.992Z,1.63
2023-04-30T20:07:24.287Z,1.20
2023-04-30T20:12:25.817Z,2.20
2023-04-30T20:17:28.088Z,2.60
2023-04-30T20:22:29.958Z,2.50
2023-04-30T20:27:31.667Z,2.27
2023-04-30T20:32:34.694Z,2.77
2023-04-30T20:37:37.242Z,1.60
2023-04-30T20:42:40.681Z,1.70
2023-04-30T20:47:42.408Z,1.60
2023-04-30T20:52:44.116Z,1.63
2023-04-30T20:57:45.810Z,1.60
2023-04-30T21:02:48.075Z,1.87
2023-04-30T21:07:49.686Z,2.00
2023-04-30T21:12:51.536Z,2.13
2023-04-30T21:17:53.220Z,1.97
2023-04-30T21:22:55.557Z,2.50
2023-04-30T21:27:57.208Z,2.47
2023-04-30T21:32:59.272Z,2.30
2023-04-30T21:38:01.146Z,2.00
2023-04-30T21:43:03.586Z,2.20
2023-04-30T21:48:05.753Z,2.50
2023-04-30T21:53:09.052Z,2.53
2023-04-30T21:58:10.770Z,2.33
2023-04-30T22:03:15.265Z,2.40
2023-04-30T22:08:17.095Z,2.63
2023-04-30T22:13:18.702Z,2.30
2023-04-30T22:18:21.233Z,2.30
2023-04-30T22:23:22.765Z,2.20
2023-04-30T22:28:24.479Z,2.27
2023-04-30T22:33:26.593Z,2.00
2023-04-30T22:38:29.227Z,2.33
2023-04-30T22:43:31.472Z,2.03
2023-04-30T22:48:33.612Z,1.80
2023-04-30T22:53:35.315Z,1.90
2023-04-30T22:58:36.990Z,2.13
2023-04-30T23:03:38.689Z,1.90
2023-04-30T23:08:40.595Z,2.00
2023-04-30T23:13:42.121Z,1.90
2023-04-30T23:18:43.956Z,2.50
2023-04-30T23:23:45.529Z,2.23
2023-04-30T23:28:47.123Z,1.93
2023-04-30T23:33:49.431Z,2.10
2023-04-30T23:38:51.341Z,2.40
2023-04-30T23:43:53.244Z,2.10
2023-04-30T23:48:55.635Z,2.20
2023-04-30T23:53:57.321Z,1.83
2023-04-30T23:58:58.916Z,1.97
